sensor_id;sensor_type;location;lat;lon;timestamp;P1;durP1;ratioP1;P2;durP2;ratioP2
15968;SDS011;8085;53.472;9.794;2023-03-13T00:00:48;29.97;;;7.40;;
15968;SDS011;8085;53.472;9.794;2023-03-13T00:03:15;27.43;;;7.40;;
15968;SDS011;8085;53.472;9.794;2023-03-13T00:05:43;33.23;;;7.63;;
15968;SDS011;8085;53.472;9.794;2023-03-13T00:08:10;29.23;;;7.60;;
15968;SDS011;8085;53.472;9.794;2023-03-13T00:10:38;30.43;;;7.50;;
15968;SDS011;8085;53.472;9.794;2023-03-13T00:13:08;30.33;;;7.20;;
15968;SDS011;8085;53.472;9.794;2023-03-13T00:15:35;29.70;;;7.57;;
15968;SDS011;8085;53.472;9.794;2023-03-13T00:18:02;25.43;;;7.63;;
15968;SDS011;8085;53.472;9.794;2023-03-13T00:20:29;27.63;;;7.13;;
15968;SDS011;8085;53.472;9.794;2023-03-13T00:22:57;35.00;;;7.60;;
15968;SDS011;8085;53.472;9.794;2023-03-13T00:25:24;32.17;;;7.90;;
15968;SDS011;8085;53.472;9.794;2023-03-13T00:27:51;32.13;;;7.53;;
15968;SDS011;8085;53.472;9.794;2023-03-13T00:30:18;37.07;;;7.93;;
15968;SDS011;8085;53.472;9.794;2023-03-13T00:32:45;39.10;;;8.40;;
15968;SDS011;8085;53.472;9.794;2023-03-13T00:35:12;33.83;;;7.57;;
15968;SDS011;8085;53.472;9.794;2023-03-13T00:37:40;36.07;;;8.33;;
15968;SDS011;8085;53.472;9.794;2023-03-13T00:40:09;35.13;;;8.00;;
15968;SDS011;8085;53.472;9.794;2023-03-13T00:42:36;31.37;;;7.50;;
15968;SDS011;8085;53.472;9.794;2023-03-13T00:45:04;26.20;;;7.40;;
15968;SDS011;8085;53.472;9.794;2023-03-13T00:47:31;31.53;;;7.63;;
15968;SDS011;8085;53.472;9.794;2023-03-13T00:49:58;31.50;;;8.27;;
15968;SDS011;8085;53.472;9.794;2023-03-13T00:52:25;33.40;;;8.40;;
15968;SDS011;8085;53.472;9.794;2023-03-13T00:54:52;34.13;;;8.77;;
15968;SDS011;8085;53.472;9.794;2023-03-13T00:57:20;33.50;;;8.37;;
15968;SDS011;8085;53.472;9.794;2023-03-13T00:59:47;37.20;;;8.37;;
15968;SDS011;8085;53.472;9.794;2023-03-13T01:02:14;35.90;;;7.87;;
15968;SDS011;8085;53.472;9.794;2023-03-13T01:04:41;29.33;;;8.40;;
15968;SDS011;8085;53.472;9.794;2023-03-13T01:07:08;33.33;;;8.10;;
15968;SDS011;8085;53.472;9.794;2023-03-13T01:09:35;39.90;;;8.03;;
15968;SDS011;8085;53.472;9.794;2023-03-13T01:12:02;34.53;;;7.83;;
15968;SDS011;8085;53.472;9.794;2023-03-13T01:14:30;35.90;;;8.83;;
15968;SDS011;8085;53.472;9.794;2023-03-13T01:16:57;31.80;;;8.00;;
15968;SDS011;8085;53.472;9.794;2023-03-13T01:19:24;34.43;;;9.03;;
15968;SDS011;8085;53.472;9.794;2023-03-13T01:21:51;36.67;;;8.00;;
15968;SDS011;8085;53.472;9.794;2023-03-13T01:24:18;31.10;;;8.70;;
15968;SDS011;8085;53.472;9.794;2023-03-13T01:26:45;41.77;;;8.07;;
15968;SDS011;8085;53.472;9.794;2023-03-13T01:29:12;32.47;;;8.20;;
15968;SDS011;8085;53.472;9.794;2023-03-13T01:31:40;30.73;;;8.07;;
15968;SDS011;8085;53.472;9.794;2023-03-13T01:34:09;37.07;;;8.13;;
15968;SDS011;8085;53.472;9.794;2023-03-13T01:36:36;36.40;;;8.90;;
15968;SDS011;8085;53.472;9.794;2023-03-13T01:39:03;34.60;;;8.43;;
15968;SDS011;8085;53.472;9.794;2023-03-13T01:41:31;34.20;;;8.33;;
15968;SDS011;8085;53.472;9.794;2023-03-13T01:43:58;33.80;;;9.33;;
15968;SDS011;8085;53.472;9.794;2023-03-13T01:46:25;31.37;;;8.33;;
15968;SDS011;8085;53.472;9.794;2023-03-13T01:48:55;31.40;;;7.97;;
15968;SDS011;8085;53.472;9.794;2023-03-13T01:51:26;33.53;;;8.10;;
15968;SDS011;8085;53.472;9.794;2023-03-13T01:53:56;34.37;;;8.27;;
15968;SDS011;8085;53.472;9.794;2023-03-13T01:56:30;32.70;;;7.80;;
15968;SDS011;8085;53.472;9.794;2023-03-13T01:59:02;31.90;;;8.03;;
15968;SDS011;8085;53.472;9.794;2023-03-13T02:01:32;30.27;;;7.60;;
15968;SDS011;8085;53.472;9.794;2023-03-13T02:04:00;32.10;;;8.33;;
15968;SDS011;8085;53.472;9.794;2023-03-13T02:06:28;33.57;;;8.20;;
15968;SDS011;8085;53.472;9.794;2023-03-13T02:08:58;32.77;;;8.33;;
15968;SDS011;8085;53.472;9.794;2023-03-13T02:11:31;29.87;;;7.73;;
15968;SDS011;8085;53.472;9.794;2023-03-13T02:14:04;30.57;;;7.73;;
15968;SDS011;8085;53.472;9.794;2023-03-13T02:16:32;33.43;;;8.47;;
15968;SDS011;8085;53.472;9.794;2023-03-13T02:19:02;33.70;;;8.47;;
15968;SDS011;8085;53.472;9.794;2023-03-13T02:21:42;35.33;;;7.90;;
15968;SDS011;8085;53.472;9.794;2023-03-13T02:24:16;33.17;;;8.23;;
15968;SDS011;8085;53.472;9.794;2023-03-13T02:26:48;31.40;;;8.17;;
15968;SDS011;8085;53.472;9.794;2023-03-13T02:29:15;37.43;;;7.70;;
15968;SDS011;8085;53.472;9.794;2023-03-13T02:31:44;38.57;;;8.63;;
15968;SDS011;8085;53.472;9.794;2023-03-13T02:34:12;35.20;;;7.20;;
15968;SDS011;8085;53.472;9.794;2023-03-13T02:36:42;39.80;;;8.50;;
15968;SDS011;8085;53.472;9.794;2023-03-13T02:39:11;33.10;;;7.47;;
15968;SDS011;8085;53.472;9.794;2023-03-13T02:41:42;34.30;;;7.67;;
15968;SDS011;8085;53.472;9.794;2023-03-13T02:44:11;32.30;;;7.23;;
15968;SDS011;8085;53.472;9.794;2023-03-13T02:46:45;30.40;;;7.63;;
15968;SDS011;8085;53.472;9.794;2023-03-13T02:49:21;33.20;;;7.80;;
15968;SDS011;8085;53.472;9.794;2023-03-13T02:51:50;31.10;;;7.70;;
15968;SDS011;8085;53.472;9.794;2023-03-13T02:54:18;38.87;;;7.97;;
15968;SDS011;8085;53.472;9.794;2023-03-13T02:56:48;35.70;;;7.43;;
15968;SDS011;8085;53.472;9.794;2023-03-13T02:59:20;38.57;;;7.43;;
15968;SDS011;8085;53.472;9.794;2023-03-13T03:01:47;27.93;;;6.70;;
15968;SDS011;8085;53.472;9.794;2023-03-13T03:04:16;30.70;;;6.73;;
15968;SDS011;8085;53.472;9.794;2023-03-13T03:06:44;30.60;;;6.87;;
15968;SDS011;8085;53.472;9.794;2023-03-13T03:09:11;38.73;;;6.87;;
15968;SDS011;8085;53.472;9.794;2023-03-13T03:11:37;31.87;;;6.47;;
15968;SDS011;8085;53.472;9.794;2023-03-13T03:14:04;31.50;;;7.10;;
15968;SDS011;8085;53.472;9.794;2023-03-13T03:16:33;26.40;;;6.53;;
15968;SDS011;8085;53.472;9.794;2023-03-13T03:19:00;37.33;;;6.80;;
15968;SDS011;8085;53.472;9.794;2023-03-13T03:21:27;37.40;;;6.70;;
15968;SDS011;8085;53.472;9.794;2023-03-13T03:23:54;34.97;;;7.10;;
15968;SDS011;8085;53.472;9.794;2023-03-13T03:26:20;31.23;;;6.70;;
15968;SDS011;8085;53.472;9.794;2023-03-13T03:28:47;34.80;;;7.00;;
15968;SDS011;8085;53.472;9.794;2023-03-13T03:31:14;30.30;;;6.27;;
15968;SDS011;8085;53.472;9.794;2023-03-13T03:33:43;23.37;;;6.53;;
15968;SDS011;8085;53.472;9.794;2023-03-13T03:36:11;27.03;;;6.87;;
15968;SDS011;8085;53.472;9.794;2023-03-13T03:38:40;39.87;;;7.90;;
15968;SDS011;8085;53.472;9.794;2023-03-13T03:41:07;36.23;;;6.87;;
15968;SDS011;8085;53.472;9.794;2023-03-13T03:43:36;30.80;;;6.40;;
15968;SDS011;8085;53.472;9.794;2023-03-13T03:46:03;26.37;;;5.80;;
15968;SDS011;8085;53.472;9.794;2023-03-13T03:48:30;30.47;;;6.20;;
15968;SDS011;8085;53.472;9.794;2023-03-13T03:50:58;24.60;;;5.83;;
15968;SDS011;8085;53.472;9.794;2023-03-13T03:53:25;31.77;;;6.93;;
15968;SDS011;8085;53.472;9.794;2023-03-13T03:55:53;40.03;;;6.70;;
15968;SDS011;8085;53.472;9.794;2023-03-13T03:58:19;27.30;;;6.57;;
15968;SDS011;8085;53.472;9.794;2023-03-13T04:00:46;23.57;;;6.07;;
15968;SDS011;8085;53.472;9.794;2023-03-13T04:03:13;33.07;;;6.40;;
15968;SDS011;8085;53.472;9.794;2023-03-13T04:05:41;29.53;;;6.03;;
15968;SDS011;8085;53.472;9.794;2023-03-13T04:08:09;30.27;;;6.33;;
15968;SDS011;8085;53.472;9.794;2023-03-13T04:10:36;31.70;;;6.53;;
15968;SDS011;8085;53.472;9.794;2023-03-13T04:13:03;34.77;;;6.00;;
15968;SDS011;8085;53.472;9.794;2023-03-13T04:15:30;23.77;;;6.33;;
15968;SDS011;8085;53.472;9.794;2023-03-13T04:17:57;26.40;;;5.60;;
15968;SDS011;8085;53.472;9.794;2023-03-13T04:20:23;25.70;;;5.53;;
15968;SDS011;8085;53.472;9.794;2023-03-13T04:22:50;32.80;;;6.47;;
15968;SDS011;8085;53.472;9.794;2023-03-13T04:25:19;27.50;;;6.27;;
15968;SDS011;8085;53.472;9.794;2023-03-13T04:27:45;27.90;;;6.00;;
15968;SDS011;8085;53.472;9.794;2023-03-13T04:30:12;26.90;;;6.20;;
15968;SDS011;8085;53.472;9.794;2023-03-13T04:32:39;35.07;;;6.37;;
15968;SDS011;8085;53.472;9.794;2023-03-13T04:35:07;24.90;;;6.37;;
15968;SDS011;8085;53.472;9.794;2023-03-13T04:37:34;22.50;;;6.00;;
15968;SDS011;8085;53.472;9.794;2023-03-13T04:40:01;25.17;;;5.97;;
15968;SDS011;8085;53.472;9.794;2023-03-13T04:42:31;25.17;;;6.33;;
15968;SDS011;8085;53.472;9.794;2023-03-13T04:44:57;29.17;;;6.27;;
15968;SDS011;8085;53.472;9.794;2023-03-13T04:47:24;29.27;;;6.70;;
15968;SDS011;8085;53.472;9.794;2023-03-13T04:49:51;26.27;;;6.10;;
15968;SDS011;8085;53.472;9.794;2023-03-13T04:52:18;23.90;;;6.10;;
15968;SDS011;8085;53.472;9.794;2023-03-13T04:54:45;32.37;;;6.63;;
15968;SDS011;8085;53.472;9.794;2023-03-13T04:57:11;25.37;;;6.30;;
15968;SDS011;8085;53.472;9.794;2023-03-13T04:59:40;32.03;;;6.57;;
15968;SDS011;8085;53.472;9.794;2023-03-13T05:02:07;34.50;;;6.57;;
15968;SDS011;8085;53.472;9.794;2023-03-13T05:04:35;25.10;;;6.10;;
15968;SDS011;8085;53.472;9.794;2023-03-13T05:07:02;21.00;;;6.00;;
15968;SDS011;8085;53.472;9.794;2023-03-13T05:09:29;24.33;;;5.40;;
15968;SDS011;8085;53.472;9.794;2023-03-13T05:11:55;25.90;;;6.37;;
15968;SDS011;8085;53.472;9.794;2023-03-13T05:14:22;26.57;;;6.20;;
15968;SDS011;8085;53.472;9.794;2023-03-13T05:16:50;20.87;;;5.70;;
15968;SDS011;8085;53.472;9.794;2023-03-13T05:19:17;32.20;;;6.63;;
15968;SDS011;8085;53.472;9.794;2023-03-13T05:21:44;21.17;;;5.77;;
15968;SDS011;8085;53.472;9.794;2023-03-13T05:24:11;16.17;;;5.47;;
15968;SDS011;8085;53.472;9.794;2023-03-13T05:26:38;21.40;;;5.27;;
15968;SDS011;8085;53.472;9.794;2023-03-13T05:29:05;21.53;;;5.20;;
15968;SDS011;8085;53.472;9.794;2023-03-13T05:31:32;19.13;;;5.77;;
15968;SDS011;8085;53.472;9.794;2023-03-13T05:34:00;22.93;;;5.60;;
15968;SDS011;8085;53.472;9.794;2023-03-13T05:36:27;19.83;;;5.47;;
15968;SDS011;8085;53.472;9.794;2023-03-13T05:38:53;18.83;;;4.93;;
15968;SDS011;8085;53.472;9.794;2023-03-13T05:41:20;13.97;;;4.23;;
15968;SDS011;8085;53.472;9.794;2023-03-13T05:43:47;12.40;;;4.53;;
15968;SDS011;8085;53.472;9.794;2023-03-13T05:46:14;14.30;;;4.57;;
15968;SDS011;8085;53.472;9.794;2023-03-13T05:48:41;14.43;;;4.13;;
15968;SDS011;8085;53.472;9.794;2023-03-13T05:51:10;14.67;;;4.70;;
15968;SDS011;8085;53.472;9.794;2023-03-13T05:53:37;15.67;;;4.67;;
15968;SDS011;8085;53.472;9.794;2023-03-13T05:56:05;10.73;;;4.27;;
15968;SDS011;8085;53.472;9.794;2023-03-13T05:58:32;13.37;;;3.93;;
15968;SDS011;8085;53.472;9.794;2023-03-13T06:01:04;13.67;;;3.90;;
15968;SDS011;8085;53.472;9.794;2023-03-13T06:03:31;10.73;;;3.93;;
15968;SDS011;8085;53.472;9.794;2023-03-13T06:05:58;11.10;;;3.67;;
15968;SDS011;8085;53.472;9.794;2023-03-13T06:08:26;17.67;;;3.90;;
15968;SDS011;8085;53.472;9.794;2023-03-13T06:10:53;10.83;;;3.53;;
15968;SDS011;8085;53.472;9.794;2023-03-13T06:13:20;13.73;;;3.70;;
15968;SDS011;8085;53.472;9.794;2023-03-13T06:15:50;13.87;;;3.97;;
15968;SDS011;8085;53.472;9.794;2023-03-13T06:18:17;13.83;;;3.63;;
15968;SDS011;8085;53.472;9.794;2023-03-13T06:20:44;10.53;;;4.13;;
15968;SDS011;8085;53.472;9.794;2023-03-13T06:23:11;9.23;;;2.90;;
15968;SDS011;8085;53.472;9.794;2023-03-13T06:25:39;10.33;;;3.20;;
15968;SDS011;8085;53.472;9.794;2023-03-13T06:28:06;11.13;;;3.40;;
15968;SDS011;8085;53.472;9.794;2023-03-13T06:30:33;8.90;;;3.10;;
15968;SDS011;8085;53.472;9.794;2023-03-13T06:33:00;8.37;;;2.97;;
15968;SDS011;8085;53.472;9.794;2023-03-13T06:35:27;6.43;;;3.20;;
15968;SDS011;8085;53.472;9.794;2023-03-13T06:37:53;9.17;;;3.60;;
15968;SDS011;8085;53.472;9.794;2023-03-13T06:40:20;7.50;;;3.60;;
15968;SDS011;8085;53.472;9.794;2023-03-13T06:42:48;7.53;;;3.30;;
15968;SDS011;8085;53.472;9.794;2023-03-13T06:45:15;11.00;;;4.10;;
15968;SDS011;8085;53.472;9.794;2023-03-13T06:47:42;11.13;;;3.77;;
15968;SDS011;8085;53.472;9.794;2023-03-13T06:50:09;10.03;;;3.97;;
15968;SDS011;8085;53.472;9.794;2023-03-13T06:52:36;11.07;;;4.00;;
15968;SDS011;8085;53.472;9.794;2023-03-13T06:55:04;8.60;;;3.50;;
15968;SDS011;8085;53.472;9.794;2023-03-13T06:57:32;9.70;;;3.80;;
15968;SDS011;8085;53.472;9.794;2023-03-13T07:00:00;9.57;;;3.57;;
15968;SDS011;8085;53.472;9.794;2023-03-13T07:02:30;7.97;;;3.67;;
15968;SDS011;8085;53.472;9.794;2023-03-13T07:04:56;7.53;;;3.80;;
15968;SDS011;8085;53.472;9.794;2023-03-13T07:07:23;9.57;;;4.10;;
15968;SDS011;8085;53.472;9.794;2023-03-13T07:09:50;9.73;;;3.90;;
15968;SDS011;8085;53.472;9.794;2023-03-13T07:12:17;11.67;;;4.17;;
15968;SDS011;8085;53.472;9.794;2023-03-13T07:14:44;8.07;;;3.97;;
15968;SDS011;8085;53.472;9.794;2023-03-13T07:17:12;8.43;;;4.00;;
15968;SDS011;8085;53.472;9.794;2023-03-13T07:19:39;9.27;;;4.53;;
15968;SDS011;8085;53.472;9.794;2023-03-13T07:22:06;7.87;;;4.13;;
15968;SDS011;8085;53.472;9.794;2023-03-13T07:24:33;8.70;;;4.40;;
15968;SDS011;8085;53.472;9.794;2023-03-13T07:26:59;10.67;;;4.73;;
15968;SDS011;8085;53.472;9.794;2023-03-13T07:29:26;10.97;;;4.73;;
15968;SDS011;8085;53.472;9.794;2023-03-13T07:31:53;11.90;;;5.00;;
15968;SDS011;8085;53.472;9.794;2023-03-13T07:34:21;10.20;;;4.83;;
15968;SDS011;8085;53.472;9.794;2023-03-13T07:36:48;9.47;;;5.37;;
15968;SDS011;8085;53.472;9.794;2023-03-13T07:39:15;9.87;;;5.77;;
15968;SDS011;8085;53.472;9.794;2023-03-13T07:41:42;13.03;;;5.97;;
15968;SDS011;8085;53.472;9.794;2023-03-13T07:44:08;10.53;;;6.27;;
15968;SDS011;8085;53.472;9.794;2023-03-13T07:46:35;10.67;;;6.73;;
15968;SDS011;8085;53.472;9.794;2023-03-13T07:49:02;14.00;;;6.60;;
15968;SDS011;8085;53.472;9.794;2023-03-13T07:51:30;11.93;;;6.70;;
15968;SDS011;8085;53.472;9.794;2023-03-13T07:53:57;10.03;;;6.80;;
15968;SDS011;8085;53.472;9.794;2023-03-13T07:56:24;10.00;;;6.67;;
15968;SDS011;8085;53.472;9.794;2023-03-13T07:58:51;10.57;;;6.87;;
15968;SDS011;8085;53.472;9.794;2023-03-13T08:01:19;10.20;;;7.30;;
15968;SDS011;8085;53.472;9.794;2023-03-13T08:03:47;12.10;;;6.77;;
15968;SDS011;8085;53.472;9.794;2023-03-13T08:06:15;9.33;;;7.10;;
15968;SDS011;8085;53.472;9.794;2023-03-13T08:08:45;9.50;;;7.07;;
15968;SDS011;8085;53.472;9.794;2023-03-13T08:11:12;9.00;;;6.37;;
15968;SDS011;8085;53.472;9.794;2023-03-13T08:13:40;8.80;;;6.30;;
15968;SDS011;8085;53.472;9.794;2023-03-13T08:16:08;8.30;;;6.33;;
15968;SDS011;8085;53.472;9.794;2023-03-13T08:18:37;9.57;;;6.37;;
15968;SDS011;8085;53.472;9.794;2023-03-13T08:21:06;6.87;;;5.87;;
15968;SDS011;8085;53.472;9.794;2023-03-13T08:23:34;9.27;;;6.73;;
15968;SDS011;8085;53.472;9.794;2023-03-13T08:26:03;9.10;;;6.80;;
15968;SDS011;8085;53.472;9.794;2023-03-13T08:28:32;11.30;;;6.97;;
15968;SDS011;8085;53.472;9.794;2023-03-13T08:31:05;10.23;;;7.23;;
15968;SDS011;8085;53.472;9.794;2023-03-13T08:33:32;10.97;;;7.23;;
15968;SDS011;8085;53.472;9.794;2023-03-13T08:36:05;10.87;;;7.77;;
15968;SDS011;8085;53.472;9.794;2023-03-13T08:38:34;12.60;;;8.20;;
15968;SDS011;8085;53.472;9.794;2023-03-13T08:41:01;11.80;;;7.93;;
15968;SDS011;8085;53.472;9.794;2023-03-13T08:43:30;12.17;;;8.80;;
15968;SDS011;8085;53.472;9.794;2023-03-13T08:45:57;11.33;;;8.07;;
15968;SDS011;8085;53.472;9.794;2023-03-13T08:48:24;11.53;;;8.63;;
15968;SDS011;8085;53.472;9.794;2023-03-13T08:50:58;9.43;;;8.13;;
15968;SDS011;8085;53.472;9.794;2023-03-13T08:53:26;11.40;;;8.37;;
15968;SDS011;8085;53.472;9.794;2023-03-13T08:55:53;9.33;;;7.80;;
15968;SDS011;8085;53.472;9.794;2023-03-13T08:58:22;13.47;;;7.47;;
15968;SDS011;8085;53.472;9.794;2023-03-13T09:00:49;12.80;;;7.67;;
15968;SDS011;8085;53.472;9.794;2023-03-13T09:03:15;9.47;;;7.47;;
15968;SDS011;8085;53.472;9.794;2023-03-13T09:05:42;12.00;;;7.47;;
15968;SDS011;8085;53.472;9.794;2023-03-13T09:08:10;10.40;;;7.37;;
15968;SDS011;8085;53.472;9.794;2023-03-13T09:10:37;10.87;;;6.87;;
15968;SDS011;8085;53.472;9.794;2023-03-13T09:13:04;8.13;;;7.00;;
15968;SDS011;8085;53.472;9.794;2023-03-13T09:15:32;11.13;;;7.20;;
15968;SDS011;8085;53.472;9.794;2023-03-13T09:17:59;10.13;;;7.07;;
15968;SDS011;8085;53.472;9.794;2023-03-13T09:20:26;11.37;;;7.40;;
15968;SDS011;8085;53.472;9.794;2023-03-13T09:22:52;11.50;;;7.70;;
15968;SDS011;8085;53.472;9.794;2023-03-13T09:25:19;12.13;;;8.33;;
15968;SDS011;8085;53.472;9.794;2023-03-13T09:27:46;12.57;;;7.50;;
15968;SDS011;8085;53.472;9.794;2023-03-13T09:30:13;10.73;;;8.17;;
15968;SDS011;8085;53.472;9.794;2023-03-13T09:32:41;9.70;;;7.77;;
15968;SDS011;8085;53.472;9.794;2023-03-13T09:35:08;10.87;;;7.63;;
15968;SDS011;8085;53.472;9.794;2023-03-13T09:37:35;11.13;;;8.10;;
15968;SDS011;8085;53.472;9.794;2023-03-13T09:40:02;13.47;;;7.97;;
15968;SDS011;8085;53.472;9.794;2023-03-13T09:42:31;11.63;;;7.43;;
15968;SDS011;8085;53.472;9.794;2023-03-13T09:45:06;11.70;;;7.93;;
15968;SDS011;8085;53.472;9.794;2023-03-13T09:47:38;13.30;;;8.43;;
15968;SDS011;8085;53.472;9.794;2023-03-13T09:50:11;12.30;;;8.60;;
15968;SDS011;8085;53.472;9.794;2023-03-13T09:52:40;11.80;;;8.60;;
15968;SDS011;8085;53.472;9.794;2023-03-13T09:55:10;14.23;;;8.70;;
15968;SDS011;8085;53.472;9.794;2023-03-13T09:57:45;11.13;;;8.37;;
15968;SDS011;8085;53.472;9.794;2023-03-13T10:00:18;12.63;;;8.73;;
15968;SDS011;8085;53.472;9.794;2023-03-13T10:02:54;11.40;;;7.90;;
15968;SDS011;8085;53.472;9.794;2023-03-13T10:05:22;13.70;;;8.50;;
15968;SDS011;8085;53.472;9.794;2023-03-13T10:07:50;12.50;;;8.57;;
15968;SDS011;8085;53.472;9.794;2023-03-13T10:10:24;9.00;;;7.43;;
15968;SDS011;8085;53.472;9.794;2023-03-13T10:13:01;10.03;;;7.37;;
15968;SDS011;8085;53.472;9.794;2023-03-13T10:15:36;10.80;;;7.70;;
15968;SDS011;8085;53.472;9.794;2023-03-13T10:18:12;9.57;;;7.23;;
15968;SDS011;8085;53.472;9.794;2023-03-13T10:20:42;8.80;;;7.00;;
15968;SDS011;8085;53.472;9.794;2023-03-13T10:23:13;8.00;;;6.13;;
15968;SDS011;8085;53.472;9.794;2023-03-13T10:25:43;10.50;;;6.63;;
15968;SDS011;8085;53.472;9.794;2023-03-13T10:28:10;8.07;;;5.57;;
15968;SDS011;8085;53.472;9.794;2023-03-13T10:30:40;7.27;;;5.10;;
15968;SDS011;8085;53.472;9.794;2023-03-13T10:33:18;8.40;;;5.73;;
15968;SDS011;8085;53.472;9.794;2023-03-13T10:35:59;5.50;;;4.70;;
15968;SDS011;8085;53.472;9.794;2023-03-13T10:38:32;7.23;;;4.40;;
15968;SDS011;8085;53.472;9.794;2023-03-13T10:41:01;6.47;;;4.43;;
15968;SDS011;8085;53.472;9.794;2023-03-13T10:43:34;5.90;;;3.93;;
15968;SDS011;8085;53.472;9.794;2023-03-13T10:46:01;6.17;;;4.13;;
15968;SDS011;8085;53.472;9.794;2023-03-13T10:48:34;7.07;;;4.30;;
15968;SDS011;8085;53.472;9.794;2023-03-13T10:51:02;7.40;;;4.00;;
15968;SDS011;8085;53.472;9.794;2023-03-13T10:53:31;7.20;;;4.00;;
15968;SDS011;8085;53.472;9.794;2023-03-13T10:56:02;8.70;;;4.43;;
15968;SDS011;8085;53.472;9.794;2023-03-13T10:58:36;7.57;;;3.77;;
15968;SDS011;8085;53.472;9.794;2023-03-13T11:01:14;7.40;;;4.03;;
15968;SDS011;8085;53.472;9.794;2023-03-13T11:03:45;6.43;;;3.63;;
15968;SDS011;8085;53.472;9.794;2023-03-13T11:06:26;7.90;;;3.43;;
15968;SDS011;8085;53.472;9.794;2023-03-13T11:08:59;3.93;;;2.67;;
15968;SDS011;8085;53.472;9.794;2023-03-13T11:11:28;5.03;;;2.80;;
15968;SDS011;8085;53.472;9.794;2023-03-13T11:14:06;5.33;;;3.27;;
15968;SDS011;8085;53.472;9.794;2023-03-13T11:16:36;7.57;;;3.20;;
15968;SDS011;8085;53.472;9.794;2023-03-13T11:19:23;10.03;;;2.73;;
15968;SDS011;8085;53.472;9.794;2023-03-13T11:22:01;5.50;;;2.67;;
15968;SDS011;8085;53.472;9.794;2023-03-13T11:24:39;3.70;;;2.17;;
15968;SDS011;8085;53.472;9.794;2023-03-13T11:27:13;4.37;;;2.00;;
15968;SDS011;8085;53.472;9.794;2023-03-13T11:29:47;2.93;;;1.70;;
15968;SDS011;8085;53.472;9.794;2023-03-13T11:32:22;2.20;;;1.77;;
15968;SDS011;8085;53.472;9.794;2023-03-13T11:34:57;6.97;;;2.00;;
15968;SDS011;8085;53.472;9.794;2023-03-13T11:37:30;3.63;;;1.57;;
15968;SDS011;8085;53.472;9.794;2023-03-13T11:40:01;2.97;;;1.90;;
15968;SDS011;8085;53.472;9.794;2023-03-13T11:42:38;5.57;;;1.93;;
15968;SDS011;8085;53.472;9.794;2023-03-13T11:45:27;3.07;;;1.80;;
15968;SDS011;8085;53.472;9.794;2023-03-13T11:48:12;2.90;;;1.97;;
15968;SDS011;8085;53.472;9.794;2023-03-13T11:50:47;5.57;;;2.00;;
15968;SDS011;8085;53.472;9.794;2023-03-13T11:56:20;3.10;;;1.60;;
15968;SDS011;8085;53.472;9.794;2023-03-13T11:58:59;3.93;;;1.87;;
15968;SDS011;8085;53.472;9.794;2023-03-13T12:01:33;4.30;;;1.90;;
15968;SDS011;8085;53.472;9.794;2023-03-13T12:04:03;2.50;;;1.50;;
15968;SDS011;8085;53.472;9.794;2023-03-13T12:06:39;4.57;;;1.67;;
15968;SDS011;8085;53.472;9.794;2023-03-13T12:09:09;2.67;;;1.53;;
15968;SDS011;8085;53.472;9.794;2023-03-13T12:11:41;2.20;;;1.43;;
15968;SDS011;8085;53.472;9.794;2023-03-13T12:14:16;3.40;;;1.77;;
15968;SDS011;8085;53.472;9.794;2023-03-13T12:16:50;3.07;;;1.40;;
15968;SDS011;8085;53.472;9.794;2023-03-13T12:19:21;3.30;;;1.90;;
15968;SDS011;8085;53.472;9.794;2023-03-13T12:21:54;4.67;;;1.73;;
15968;SDS011;8085;53.472;9.794;2023-03-13T12:24:25;5.20;;;1.70;;
15968;SDS011;8085;53.472;9.794;2023-03-13T12:26:57;3.17;;;1.47;;
15968;SDS011;8085;53.472;9.794;2023-03-13T12:29:31;2.10;;;1.40;;
15968;SDS011;8085;53.472;9.794;2023-03-13T12:32:10;5.37;;;1.80;;
15968;SDS011;8085;53.472;9.794;2023-03-13T12:34:43;4.13;;;1.70;;
15968;SDS011;8085;53.472;9.794;2023-03-13T12:37:19;5.27;;;1.57;;
15968;SDS011;8085;53.472;9.794;2023-03-13T12:39:50;3.50;;;1.30;;
15968;SDS011;8085;53.472;9.794;2023-03-13T12:42:27;3.43;;;1.63;;
15968;SDS011;8085;53.472;9.794;2023-03-13T12:45:09;4.57;;;1.53;;
15968;SDS011;8085;53.472;9.794;2023-03-13T12:47:48;3.90;;;1.50;;
15968;SDS011;8085;53.472;9.794;2023-03-13T12:50:52;4.10;;;1.30;;
15968;SDS011;8085;53.472;9.794;2023-03-13T12:56:53;3.43;;;1.50;;
15968;SDS011;8085;53.472;9.794;2023-03-13T12:59:36;2.67;;;1.37;;
15968;SDS011;8085;53.472;9.794;2023-03-13T13:02:12;3.67;;;1.20;;
15968;SDS011;8085;53.472;9.794;2023-03-13T13:04:41;4.07;;;1.50;;
15968;SDS011;8085;53.472;9.794;2023-03-13T13:07:17;3.17;;;1.10;;
15968;SDS011;8085;53.472;9.794;2023-03-13T13:10:01;3.60;;;1.60;;
15968;SDS011;8085;53.472;9.794;2023-03-13T13:12:42;4.30;;;1.40;;
15968;SDS011;8085;53.472;9.794;2023-03-13T13:15:17;4.00;;;1.50;;
15968;SDS011;8085;53.472;9.794;2023-03-13T13:17:53;3.00;;;1.10;;
15968;SDS011;8085;53.472;9.794;2023-03-13T13:20:41;4.47;;;1.40;;
15968;SDS011;8085;53.472;9.794;2023-03-13T13:23:23;3.90;;;1.30;;
15968;SDS011;8085;53.472;9.794;2023-03-13T13:25:57;2.50;;;1.13;;
15968;SDS011;8085;53.472;9.794;2023-03-13T13:41:01;4.27;;;1.30;;
15968;SDS011;8085;53.472;9.794;2023-03-13T13:43:30;3.23;;;1.30;;
15968;SDS011;8085;53.472;9.794;2023-03-13T13:46:00;4.50;;;1.30;;
15968;SDS011;8085;53.472;9.794;2023-03-13T13:48:34;4.73;;;1.20;;
15968;SDS011;8085;53.472;9.794;2023-03-13T13:51:18;4.40;;;1.30;;
15968;SDS011;8085;53.472;9.794;2023-03-13T13:53:50;2.07;;;1.10;;
15968;SDS011;8085;53.472;9.794;2023-03-13T13:59:32;3.10;;;1.17;;
15968;SDS011;8085;53.472;9.794;2023-03-13T14:02:13;4.33;;;1.30;;
15968;SDS011;8085;53.472;9.794;2023-03-13T14:04:51;3.53;;;1.10;;
15968;SDS011;8085;53.472;9.794;2023-03-13T14:07:27;5.20;;;1.47;;
15968;SDS011;8085;53.472;9.794;2023-03-13T14:10:00;4.83;;;1.37;;
15968;SDS011;8085;53.472;9.794;2023-03-13T14:12:33;3.40;;;1.30;;
15968;SDS011;8085;53.472;9.794;2023-03-13T14:15:07;3.13;;;1.10;;
15968;SDS011;8085;53.472;9.794;2023-03-13T14:17:40;3.80;;;1.40;;
15968;SDS011;8085;53.472;9.794;2023-03-13T14:20:28;2.93;;;1.30;;
15968;SDS011;8085;53.472;9.794;2023-03-13T14:22:57;2.13;;;1.20;;
15968;SDS011;8085;53.472;9.794;2023-03-13T14:25:25;3.20;;;1.20;;
15968;SDS011;8085;53.472;9.794;2023-03-13T14:27:53;4.47;;;1.50;;
15968;SDS011;8085;53.472;9.794;2023-03-13T14:30:21;3.70;;;1.20;;
15968;SDS011;8085;53.472;9.794;2023-03-13T14:32:49;4.67;;;1.30;;
15968;SDS011;8085;53.472;9.794;2023-03-13T14:35:18;5.73;;;1.40;;
15968;SDS011;8085;53.472;9.794;2023-03-13T14:37:48;5.43;;;1.30;;
15968;SDS011;8085;53.472;9.794;2023-03-13T14:40:22;5.67;;;1.40;;
15968;SDS011;8085;53.472;9.794;2023-03-13T14:42:51;5.53;;;1.20;;
15968;SDS011;8085;53.472;9.794;2023-03-13T14:45:21;1.77;;;0.93;;
15968;SDS011;8085;53.472;9.794;2023-03-13T14:47:51;3.87;;;1.00;;
15968;SDS011;8085;53.472;9.794;2023-03-13T14:50:18;2.93;;;1.40;;
15968;SDS011;8085;53.472;9.794;2023-03-13T14:52:50;5.43;;;1.20;;
15968;SDS011;8085;53.472;9.794;2023-03-13T14:55:27;1.83;;;1.27;;
15968;SDS011;8085;53.472;9.794;2023-03-13T14:57:57;1.83;;;1.10;;
15968;SDS011;8085;53.472;9.794;2023-03-13T15:00:30;2.43;;;1.20;;
15968;SDS011;8085;53.472;9.794;2023-03-13T15:03:15;2.83;;;1.27;;
15968;SDS011;8085;53.472;9.794;2023-03-13T15:05:46;3.70;;;1.43;;
15968;SDS011;8085;53.472;9.794;2023-03-13T15:08:16;5.03;;;1.27;;
15968;SDS011;8085;53.472;9.794;2023-03-13T15:10:45;2.53;;;1.30;;
15968;SDS011;8085;53.472;9.794;2023-03-13T15:13:13;2.67;;;0.90;;
15968;SDS011;8085;53.472;9.794;2023-03-13T15:15:41;2.30;;;1.20;;
15968;SDS011;8085;53.472;9.794;2023-03-13T15:18:10;2.93;;;1.27;;
15968;SDS011;8085;53.472;9.794;2023-03-13T15:20:43;2.73;;;1.17;;
15968;SDS011;8085;53.472;9.794;2023-03-13T15:23:15;2.07;;;1.17;;
15968;SDS011;8085;53.472;9.794;2023-03-13T15:25:42;2.07;;;1.10;;
15968;SDS011;8085;53.472;9.794;2023-03-13T15:28:12;3.50;;;0.90;;
15968;SDS011;8085;53.472;9.794;2023-03-13T15:30:41;3.53;;;1.30;;